PWSweather.com
Personal Weather Stations
Station Observations
K4FB1
Clubhouse Heritage, Lakeland, FL 33812

Clubhouse HeritageLakeland, FL 33812

Lat: 27.969224, Lon: -81.897769

Elevation: 145

Station Type: Davis Vantage Pro2

http://www.ClubhouseWX.com

High Low Average
Temperature 93.8°F34.3°C 69.5°F20.8°C 78.5°F25.8°C
Dew Point 80.5°F26.9°C 64.1°F17.8°C 71.8°F22.1°C
Winds 6.0 mph 9.7 kmh Calm Calm 2.0 mph NE3.2 kmh NE
Wind Gusts 12.0 mph19.3 kmh -- 4.0 mph6.4 kmh
Humidity 86% 62% 80%
Pressure 30.07 in1018.3 mb 29.95 in1014.2 mb -
Precipitation 0.29 in7.4 mm - -
Hour Temp Dew Point Humidity Winds Wind Gusts Pressure Precip Precip Rate Daily Precip Total
12:00 AM 70.4°F21.3°C 66.0°F18.9°C 86% Calm Calm 1.0 mph1.6 kmh 30.07 in1018.3 mb 0.00 in0.0 mm 0.00 in0.0 mm 0.00 in0.0 mm
12:05 AM 70.3°F21.3°C 65.9°F18.8°C 86% Calm Calm 1.0 mph1.6 kmh 30.07 in1018.3 mb 0.00 in0.0 mm 0.00 in0.0 mm 0.00 in0.0 mm
12:10 AM 70.2°F21.2°C 65.8°F18.8°C 86% Calm Calm 1.0 mph1.6 kmh 30.06 in1017.9 mb 0.00 in0.0 mm 0.00 in0.0 mm 0.00 in0.0 mm
12:15 AM 70.1°F21.2°C 65.7°F18.7°C 86% Calm Calm 1.0 mph1.6 kmh 30.06 in1017.9 mb 0.00 in0.0 mm 0.00 in0.0 mm 0.00 in0.0 mm
12:20 AM 70.1°F21.2°C 65.7°F18.7°C 86% Calm Calm 1.0 mph1.6 kmh 30.06 in1017.9 mb 0.00 in0.0 mm 0.00 in0.0 mm 0.00 in0.0 mm
12:25 AM 70.1°F21.2°C 65.7°F18.7°C 86% Calm Calm 1.0 mph1.6 kmh 30.06 in1017.9 mb 0.00 in0.0 mm 0.00 in0.0 mm 0.00 in0.0 mm
12:30 AM 70.2°F21.2°C 65.8°F18.8°C 86% Calm Calm 1.0 mph1.6 kmh 30.06 in1017.9 mb 0.00 in0.0 mm 0.00 in0.0 mm 0.00 in0.0 mm
12:35 AM 70.1°F21.2°C 65.7°F18.7°C 86% Calm Calm 1.0 mph1.6 kmh 30.06 in1017.9 mb 0.00 in0.0 mm 0.00 in0.0 mm 0.00 in0.0 mm
12:40 AM 70.0°F21.1°C 65.6°F18.7°C 86% Calm Calm 1.0 mph1.6 kmh 30.06 in1017.9 mb 0.00 in0.0 mm 0.00 in0.0 mm 0.00 in0.0 mm
12:45 AM 69.9°F21.1°C 65.5°F18.6°C 86% Calm Calm 1.0 mph1.6 kmh 30.06 in1017.9 mb 0.00 in0.0 mm 0.00 in0.0 mm 0.00 in0.0 mm
12:50 AM 69.9°F21.1°C 65.2°F18.4°C 85% Calm Calm 1.0 mph1.6 kmh 30.06 in1017.9 mb 0.00 in0.0 mm 0.00 in0.0 mm 0.00 in0.0 mm
12:55 AM 69.9°F21.1°C 65.5°F18.6°C 86% Calm Calm 1.0 mph1.6 kmh 30.06 in1017.9 mb 0.00 in0.0 mm 0.00 in0.0 mm 0.00 in0.0 mm
01:00 AM 69.8°F21.0°C 65.4°F18.6°C 86% Calm Calm 1.0 mph1.6 kmh 30.05 in1017.6 mb 0.00 in0.0 mm 0.00 in0.0 mm 0.00 in0.0 mm
01:05 AM 69.7°F20.9°C 65.0°F18.3°C 85% Calm Calm 1.0 mph1.6 kmh 30.05 in1017.6 mb 0.00 in0.0 mm 0.00 in0.0 mm 0.00 in0.0 mm
01:10 AM 69.6°F20.9°C 65.2°F18.4°C 86% Calm Calm 1.0 mph1.6 kmh 30.05 in1017.6 mb 0.00 in0.0 mm 0.00 in0.0 mm 0.00 in0.0 mm
01:15 AM 69.5°F20.8°C 65.1°F18.4°C 86% Calm Calm 1.0 mph1.6 kmh 30.05 in1017.6 mb 0.00 in0.0 mm 0.00 in0.0 mm 0.00 in0.0 mm
01:20 AM 69.5°F20.8°C 64.8°F18.2°C 85% Calm Calm 1.0 mph1.6 kmh 30.05 in1017.6 mb 0.00 in0.0 mm 0.00 in0.0 mm 0.00 in0.0 mm
01:25 AM 69.5°F20.8°C 64.8°F18.2°C 85% Calm Calm 1.0 mph1.6 kmh 30.05 in1017.6 mb 0.00 in0.0 mm 0.00 in0.0 mm 0.00 in0.0 mm
01:30 AM 69.5°F20.8°C 64.8°F18.2°C 85% Calm Calm 1.0 mph1.6 kmh 30.05 in1017.6 mb 0.00 in0.0 mm 0.00 in0.0 mm 0.00 in0.0 mm
01:35 AM 69.6°F20.9°C 64.9°F18.3°C 85% Calm Calm 1.0 mph1.6 kmh 30.05 in1017.6 mb 0.00 in0.0 mm 0.00 in0.0 mm 0.00 in0.0 mm
01:40 AM 69.7°F20.9°C 65.0°F18.3°C 85% Calm Calm 1.0 mph1.6 kmh 30.05 in1017.6 mb 0.00 in0.0 mm 0.00 in0.0 mm 0.00 in0.0 mm
01:45 AM 69.7°F20.9°C 65.0°F18.3°C 85% Calm Calm 1.0 mph1.6 kmh 30.04 in1017.3 mb 0.00 in0.0 mm 0.00 in0.0 mm 0.00 in0.0 mm
01:50 AM 69.7°F20.9°C 65.0°F18.3°C 85% Calm Calm 1.0 mph1.6 kmh 30.04 in1017.3 mb 0.00 in0.0 mm 0.00 in0.0 mm 0.00 in0.0 mm
01:55 AM 69.7°F20.9°C 64.6°F18.1°C 84% Calm Calm 2.0 mph3.2 kmh 30.04 in1017.3 mb 0.00 in0.0 mm 0.00 in0.0 mm 0.00 in0.0 mm
02:00 AM 69.7°F20.9°C 64.6°F18.1°C 84% Calm Calm 2.0 mph3.2 kmh 30.04 in1017.3 mb 0.00 in0.0 mm 0.00 in0.0 mm 0.00 in0.0 mm
02:05 AM 69.8°F21.0°C 64.7°F18.2°C 84% Calm Calm 2.0 mph3.2 kmh 30.04 in1017.3 mb 0.00 in0.0 mm 0.00 in0.0 mm 0.00 in0.0 mm
02:10 AM 69.9°F21.1°C 64.8°F18.2°C 84% Calm Calm 1.0 mph1.6 kmh 30.04 in1017.3 mb 0.00 in0.0 mm 0.00 in0.0 mm 0.00 in0.0 mm
02:15 AM 69.9°F21.1°C 64.8°F18.2°C 84% Calm Calm 1.0 mph1.6 kmh 30.04 in1017.3 mb 0.00 in0.0 mm 0.00 in0.0 mm 0.00 in0.0 mm
02:20 AM 69.9°F21.1°C 64.8°F18.2°C 84% Calm Calm 1.0 mph1.6 kmh 30.04 in1017.3 mb 0.00 in0.0 mm 0.00 in0.0 mm 0.00 in0.0 mm
02:25 AM 69.9°F21.1°C 64.8°F18.2°C 84% Calm Calm 1.0 mph1.6 kmh 30.04 in1017.3 mb 0.00 in0.0 mm 0.00 in0.0 mm 0.00 in0.0 mm
02:30 AM 69.8°F21.0°C 64.7°F18.2°C 84% Calm Calm 1.0 mph1.6 kmh 30.03 in1016.9 mb 0.00 in0.0 mm 0.00 in0.0 mm 0.00 in0.0 mm
02:35 AM 69.7°F20.9°C 64.6°F18.1°C 84% Calm Calm 1.0 mph1.6 kmh 30.03 in1016.9 mb 0.00 in0.0 mm 0.00 in0.0 mm 0.00 in0.0 mm
02:40 AM 69.7°F20.9°C 64.6°F18.1°C 84% Calm Calm 1.0 mph1.6 kmh 30.03 in1016.9 mb 0.00 in0.0 mm 0.00 in0.0 mm 0.00 in0.0 mm
02:45 AM 69.8°F21.0°C 64.7°F18.2°C 84% Calm Calm 1.0 mph1.6 kmh 30.03 in1016.9 mb 0.00 in0.0 mm 0.00 in0.0 mm 0.00 in0.0 mm
02:50 AM 69.9°F21.1°C 64.8°F18.2°C 84% Calm Calm 1.0 mph1.6 kmh 30.02 in1016.6 mb 0.00 in0.0 mm 0.00 in0.0 mm 0.00 in0.0 mm
02:55 AM 69.9°F21.1°C 64.8°F18.2°C 84% Calm Calm 1.0 mph1.6 kmh 30.02 in1016.6 mb 0.00 in0.0 mm 0.00 in0.0 mm 0.00 in0.0 mm
03:00 AM 69.8°F21.0°C 64.7°F18.2°C 84% Calm Calm 1.0 mph1.6 kmh 30.02 in1016.6 mb 0.00 in0.0 mm 0.00 in0.0 mm 0.00 in0.0 mm
03:05 AM 69.8°F21.0°C 64.7°F18.2°C 84% Calm Calm 1.0 mph1.6 kmh 30.02 in1016.6 mb 0.00 in0.0 mm 0.00 in0.0 mm 0.00 in0.0 mm
03:10 AM 69.8°F21.0°C 64.7°F18.2°C 84% Calm Calm 2.0 mph3.2 kmh 30.02 in1016.6 mb 0.00 in0.0 mm 0.00 in0.0 mm 0.00 in0.0 mm
03:15 AM 69.8°F21.0°C 64.7°F18.2°C 84% Calm Calm 2.0 mph3.2 kmh 30.02 in1016.6 mb 0.00 in0.0 mm 0.00 in0.0 mm 0.00 in0.0 mm
03:20 AM 69.7°F20.9°C 64.6°F18.1°C 84% Calm Calm 1.0 mph1.6 kmh 30.02 in1016.6 mb 0.00 in0.0 mm 0.00 in0.0 mm 0.00 in0.0 mm
03:25 AM 69.7°F20.9°C 64.6°F18.1°C 84% 1.0 mph ENE1.6 kmh ENE 2.0 mph3.2 kmh 30.02 in1016.6 mb 0.00 in0.0 mm 0.00 in0.0 mm 0.00 in0.0 mm
03:30 AM 69.7°F20.9°C 64.6°F18.1°C 84% 1.0 mph ENE1.6 kmh ENE 2.0 mph3.2 kmh 30.02 in1016.6 mb 0.00 in0.0 mm 0.00 in0.0 mm 0.00 in0.0 mm
03:35 AM 69.8°F21.0°C 64.7°F18.2°C 84% Calm Calm 2.0 mph3.2 kmh 30.02 in1016.6 mb 0.00 in0.0 mm 0.00 in0.0 mm 0.00 in0.0 mm
03:40 AM 69.8°F21.0°C 64.4°F18.0°C 83% Calm Calm 1.0 mph1.6 kmh 30.02 in1016.6 mb 0.00 in0.0 mm 0.00 in0.0 mm 0.00 in0.0 mm
03:45 AM 69.7°F20.9°C 64.3°F17.9°C 83% Calm Calm 1.0 mph1.6 kmh 30.02 in1016.6 mb 0.00 in0.0 mm 0.00 in0.0 mm 0.00 in0.0 mm
03:50 AM 69.7°F20.9°C 64.3°F17.9°C 83% Calm Calm -- 30.02 in1016.6 mb 0.00 in0.0 mm 0.00 in0.0 mm 0.00 in0.0 mm
03:55 AM 69.6°F20.9°C 64.5°F18.1°C 84% Calm Calm -- 30.02 in1016.6 mb 0.00 in0.0 mm 0.00 in0.0 mm 0.00 in0.0 mm
04:00 AM 69.6°F20.9°C 64.5°F18.1°C 84% Calm Calm -- 30.02 in1016.6 mb 0.00 in0.0 mm 0.00 in0.0 mm 0.00 in0.0 mm
04:05 AM 69.6°F20.9°C 64.2°F17.9°C 83% Calm Calm 1.0 mph1.6 kmh 30.02 in1016.6 mb 0.00 in0.0 mm 0.00 in0.0 mm 0.00 in0.0 mm
04:10 AM 69.6°F20.9°C 64.2°F17.9°C 83% 1.0 mph ENE1.6 kmh ENE 2.0 mph3.2 kmh 30.02 in1016.6 mb 0.00 in0.0 mm 0.00 in0.0 mm 0.00 in0.0 mm
04:15 AM 69.7°F20.9°C 64.3°F17.9°C 83% Calm Calm 2.0 mph3.2 kmh 30.02 in1016.6 mb 0.00 in0.0 mm 0.00 in0.0 mm 0.00 in0.0 mm
04:20 AM 69.7°F20.9°C 64.3°F17.9°C 83% Calm Calm 2.0 mph3.2 kmh 30.02 in1016.6 mb 0.00 in0.0 mm 0.00 in0.0 mm 0.00 in0.0 mm
04:25 AM 69.8°F21.0°C 64.4°F18.0°C 83% 1.0 mph ENE1.6 kmh ENE 2.0 mph3.2 kmh 30.02 in1016.6 mb 0.00 in0.0 mm 0.00 in0.0 mm 0.00 in0.0 mm
04:30 AM 69.8°F21.0°C 64.4°F18.0°C 83% Calm Calm 2.0 mph3.2 kmh 30.02 in1016.6 mb 0.00 in0.0 mm 0.00 in0.0 mm 0.00 in0.0 mm
04:35 AM 69.8°F21.0°C 64.4°F18.0°C 83% Calm Calm 2.0 mph3.2 kmh 30.02 in1016.6 mb 0.00 in0.0 mm 0.00 in0.0 mm 0.00 in0.0 mm
04:40 AM 69.8°F21.0°C 64.4°F18.0°C 83% Calm Calm 1.0 mph1.6 kmh 30.03 in1016.9 mb 0.00 in0.0 mm 0.00 in0.0 mm 0.00 in0.0 mm
04:45 AM 69.8°F21.0°C 64.4°F18.0°C 83% Calm Calm 1.0 mph1.6 kmh 30.03 in1016.9 mb 0.00 in0.0 mm 0.00 in0.0 mm 0.00 in0.0 mm
04:50 AM 69.7°F20.9°C 64.3°F17.9°C 83% Calm Calm 1.0 mph1.6 kmh 30.03 in1016.9 mb 0.00 in0.0 mm 0.00 in0.0 mm 0.00 in0.0 mm
04:55 AM 69.6°F20.9°C 64.2°F17.9°C 83% Calm Calm 1.0 mph1.6 kmh 30.03 in1016.9 mb 0.00 in0.0 mm 0.00 in0.0 mm 0.00 in0.0 mm
05:00 AM 69.5°F20.8°C 64.1°F17.8°C 83% Calm Calm 1.0 mph1.6 kmh 30.03 in1016.9 mb 0.00 in0.0 mm 0.00 in0.0 mm 0.00 in0.0 mm
05:05 AM 69.5°F20.8°C 64.1°F17.8°C 83% Calm Calm 1.0 mph1.6 kmh 30.03 in1016.9 mb 0.00 in0.0 mm 0.00 in0.0 mm 0.00 in0.0 mm
05:10 AM 69.5°F20.8°C 64.1°F17.8°C 83% Calm Calm 1.0 mph1.6 kmh 30.03 in1016.9 mb 0.00 in0.0 mm 0.00 in0.0 mm 0.00 in0.0 mm
05:15 AM 69.5°F20.8°C 64.1°F17.8°C 83% Calm Calm 1.0 mph1.6 kmh 30.03 in1016.9 mb 0.00 in0.0 mm 0.00 in0.0 mm 0.00 in0.0 mm
05:20 AM 69.5°F20.8°C 64.1°F17.8°C 83% Calm Calm 1.0 mph1.6 kmh 30.03 in1016.9 mb 0.00 in0.0 mm 0.00 in0.0 mm 0.00 in0.0 mm
05:25 AM 69.8°F21.0°C 64.4°F18.0°C 83% Calm Calm 2.0 mph3.2 kmh 30.03 in1016.9 mb 0.00 in0.0 mm 0.00 in0.0 mm 0.00 in0.0 mm
05:30 AM 69.9°F21.1°C 64.5°F18.1°C 83% 1.0 mph ENE1.6 kmh ENE 2.0 mph3.2 kmh 30.03 in1016.9 mb 0.00 in0.0 mm 0.00 in0.0 mm 0.00 in0.0 mm
05:35 AM 70.1°F21.2°C 64.7°F18.2°C 83% 1.0 mph ENE1.6 kmh ENE 2.0 mph3.2 kmh 30.03 in1016.9 mb 0.00 in0.0 mm 0.00 in0.0 mm 0.00 in0.0 mm
05:40 AM 70.2°F21.2°C 64.8°F18.2°C 83% Calm Calm 2.0 mph3.2 kmh 30.03 in1016.9 mb 0.00 in0.0 mm 0.00 in0.0 mm 0.00 in0.0 mm
05:45 AM 70.2°F21.2°C 64.8°F18.2°C 83% 1.0 mph ENE1.6 kmh ENE 2.0 mph3.2 kmh 30.03 in1016.9 mb 0.00 in0.0 mm 0.00 in0.0 mm 0.00 in0.0 mm
05:50 AM 70.3°F21.3°C 64.9°F18.3°C 83% 1.0 mph NE1.6 kmh NE 3.0 mph4.8 kmh 30.03 in1016.9 mb 0.00 in0.0 mm 0.00 in0.0 mm 0.00 in0.0 mm
05:55 AM 70.5°F21.4°C 65.1°F18.4°C 83% 1.0 mph NNE1.6 kmh NNE 3.0 mph4.8 kmh 30.04 in1017.3 mb 0.00 in0.0 mm 0.00 in0.0 mm 0.00 in0.0 mm
06:00 AM 70.5°F21.4°C 65.1°F18.4°C 83% 1.0 mph N1.6 kmh N 2.0 mph3.2 kmh 30.04 in1017.3 mb 0.00 in0.0 mm 0.00 in0.0 mm 0.00 in0.0 mm
06:05 AM 70.6°F21.4°C 65.2°F18.4°C 83% 1.0 mph N1.6 kmh N 2.0 mph3.2 kmh 30.04 in1017.3 mb 0.00 in0.0 mm 0.00 in0.0 mm 0.00 in0.0 mm
06:10 AM 70.5°F21.4°C 65.1°F18.4°C 83% Calm Calm 2.0 mph3.2 kmh 30.04 in1017.3 mb 0.00 in0.0 mm 0.00 in0.0 mm 0.00 in0.0 mm
06:15 AM 70.5°F21.4°C 65.1°F18.4°C 83% Calm Calm 1.0 mph1.6 kmh 30.04 in1017.3 mb 0.00 in0.0 mm 0.00 in0.0 mm 0.00 in0.0 mm
06:20 AM 70.4°F21.3°C 65.0°F18.3°C 83% Calm Calm 1.0 mph1.6 kmh 30.04 in1017.3 mb 0.00 in0.0 mm 0.00 in0.0 mm 0.00 in0.0 mm
06:25 AM 70.3°F21.3°C 64.9°F18.3°C 83% Calm Calm 1.0 mph1.6 kmh 30.04 in1017.3 mb 0.00 in0.0 mm 0.00 in0.0 mm 0.00 in0.0 mm
06:30 AM 70.2°F21.2°C 64.8°F18.2°C 83% Calm Calm 1.0 mph1.6 kmh 30.04 in1017.3 mb 0.00 in0.0 mm 0.00 in0.0 mm 0.00 in0.0 mm
06:35 AM 70.1°F21.2°C 64.7°F18.2°C 83% Calm Calm 1.0 mph1.6 kmh 30.04 in1017.3 mb 0.00 in0.0 mm 0.00 in0.0 mm 0.00 in0.0 mm
06:40 AM 70.2°F21.2°C 64.8°F18.2°C 83% Calm Calm 1.0 mph1.6 kmh 30.04 in1017.3 mb 0.00 in0.0 mm 0.00 in0.0 mm 0.00 in0.0 mm
06:45 AM 70.3°F21.3°C 64.9°F18.3°C 83% Calm Calm 1.0 mph1.6 kmh 30.04 in1017.3 mb 0.00 in0.0 mm 0.00 in0.0 mm 0.00 in0.0 mm
06:50 AM 70.5°F21.4°C 65.1°F18.4°C 83% Calm Calm 1.0 mph1.6 kmh 30.04 in1017.3 mb 0.00 in0.0 mm 0.00 in0.0 mm 0.00 in0.0 mm
06:55 AM 70.6°F21.4°C 65.2°F18.4°C 83% Calm Calm 1.0 mph1.6 kmh 30.04 in1017.3 mb 0.00 in0.0 mm 0.00 in0.0 mm 0.00 in0.0 mm
07:00 AM 70.6°F21.4°C 65.2°F18.4°C 83% Calm Calm 1.0 mph1.6 kmh 30.04 in1017.3 mb 0.00 in0.0 mm 0.00 in0.0 mm 0.00 in0.0 mm
07:05 AM 70.7°F21.5°C 65.3°F18.5°C 83% Calm Calm 1.0 mph1.6 kmh 30.05 in1017.6 mb 0.00 in0.0 mm 0.00 in0.0 mm 0.00 in0.0 mm
07:10 AM 70.8°F21.6°C 65.4°F18.6°C 83% Calm Calm 1.0 mph1.6 kmh 30.05 in1017.6 mb 0.00 in0.0 mm 0.00 in0.0 mm 0.00 in0.0 mm
07:15 AM 71.0°F21.7°C 65.6°F18.7°C 83% Calm Calm 1.0 mph1.6 kmh 30.05 in1017.6 mb 0.00 in0.0 mm 0.00 in0.0 mm 0.00 in0.0 mm
07:20 AM 71.2°F21.8°C 65.8°F18.8°C 83% Calm Calm 1.0 mph1.6 kmh 30.05 in1017.6 mb 0.00 in0.0 mm 0.00 in0.0 mm 0.00 in0.0 mm
07:25 AM 71.7°F22.1°C 66.3°F19.1°C 83% Calm Calm 1.0 mph1.6 kmh 30.05 in1017.6 mb 0.00 in0.0 mm 0.00 in0.0 mm 0.00 in0.0 mm
07:30 AM 72.2°F22.3°C 67.1°F19.5°C 84% Calm Calm 2.0 mph3.2 kmh 30.06 in1017.9 mb 0.00 in0.0 mm 0.00 in0.0 mm 0.00 in0.0 mm
07:35 AM 72.7°F22.6°C 67.6°F19.8°C 84% 1.0 mph N1.6 kmh N 2.0 mph3.2 kmh 30.06 in1017.9 mb 0.00 in0.0 mm 0.00 in0.0 mm 0.00 in0.0 mm
07:40 AM 73.3°F22.9°C 68.2°F20.1°C 84% 1.0 mph NNE1.6 kmh NNE 4.0 mph6.4 kmh 30.06 in1017.9 mb 0.00 in0.0 mm 0.00 in0.0 mm 0.00 in0.0 mm
07:45 AM 73.7°F23.2°C 68.6°F20.3°C 84% 1.0 mph NNE1.6 kmh NNE 4.0 mph6.4 kmh 30.06 in1017.9 mb 0.00 in0.0 mm 0.00 in0.0 mm 0.00 in0.0 mm
07:50 AM 74.2°F23.4°C 69.1°F20.6°C 84% 1.0 mph NNE1.6 kmh NNE 3.0 mph4.8 kmh 30.06 in1017.9 mb 0.00 in0.0 mm 0.00 in0.0 mm 0.00 in0.0 mm
07:55 AM 74.7°F23.7°C 69.5°F20.8°C 84% 1.0 mph NNE1.6 kmh NNE 3.0 mph4.8 kmh 30.06 in1017.9 mb 0.00 in0.0 mm 0.00 in0.0 mm 0.00 in0.0 mm
08:00 AM 75.1°F23.9°C 69.9°F21.1°C 84% 1.0 mph NNE1.6 kmh NNE 3.0 mph4.8 kmh 30.06 in1017.9 mb 0.00 in0.0 mm 0.00 in0.0 mm 0.00 in0.0 mm
08:05 AM 75.5°F24.2°C 70.3°F21.3°C 84% 1.0 mph NNE1.6 kmh NNE 3.0 mph4.8 kmh 30.06 in1017.9 mb 0.00 in0.0 mm 0.00 in0.0 mm 0.00 in0.0 mm
08:10 AM 75.8°F24.3°C 70.6°F21.4°C 84% 1.0 mph NNE1.6 kmh NNE 4.0 mph6.4 kmh 30.06 in1017.9 mb 0.00 in0.0 mm 0.00 in0.0 mm 0.00 in0.0 mm
08:15 AM 76.2°F24.6°C 71.0°F21.7°C 84% 2.0 mph NNE3.2 kmh NNE 4.0 mph6.4 kmh 30.06 in1017.9 mb 0.00 in0.0 mm 0.00 in0.0 mm 0.00 in0.0 mm
08:20 AM 76.6°F24.8°C 71.0°F21.7°C 83% 2.0 mph NNE3.2 kmh NNE 4.0 mph6.4 kmh 30.06 in1017.9 mb 0.00 in0.0 mm 0.00 in0.0 mm 0.00 in0.0 mm
08:25 AM 77.1°F25.1°C 71.5°F21.9°C 83% 2.0 mph N3.2 kmh N 3.0 mph4.8 kmh 30.07 in1018.3 mb 0.00 in0.0 mm 0.00 in0.0 mm 0.00 in0.0 mm
08:30 AM 77.5°F25.3°C 71.9°F22.2°C 83% 2.0 mph N3.2 kmh N 4.0 mph6.4 kmh 30.07 in1018.3 mb 0.00 in0.0 mm 0.00 in0.0 mm 0.00 in0.0 mm
08:35 AM 77.9°F25.5°C 72.0°F22.2°C 82% 2.0 mph N3.2 kmh N 5.0 mph8.0 kmh 30.07 in1018.3 mb 0.00 in0.0 mm 0.00 in0.0 mm 0.00 in0.0 mm
08:40 AM 78.3°F25.7°C 72.0°F22.2°C 81% 2.0 mph NNE3.2 kmh NNE 5.0 mph8.0 kmh 30.07 in1018.3 mb 0.00 in0.0 mm 0.00 in0.0 mm 0.00 in0.0 mm
08:45 AM 78.8°F26.0°C 72.1°F22.3°C 80% 2.0 mph NNE3.2 kmh NNE 5.0 mph8.0 kmh 30.07 in1018.3 mb 0.00 in0.0 mm 0.00 in0.0 mm 0.00 in0.0 mm
08:50 AM 79.2°F26.2°C 73.2°F22.9°C 82% 3.0 mph NNE4.8 kmh NNE 6.0 mph9.7 kmh 30.07 in1018.3 mb 0.00 in0.0 mm 0.00 in0.0 mm 0.00 in0.0 mm
08:55 AM 79.9°F26.6°C 74.6°F23.7°C 84% 3.0 mph NE4.8 kmh NE 6.0 mph9.7 kmh 30.07 in1018.3 mb 0.00 in0.0 mm 0.00 in0.0 mm 0.00 in0.0 mm
09:00 AM 80.5°F26.9°C 75.6°F24.2°C 85% 3.0 mph ENE4.8 kmh ENE 6.0 mph9.7 kmh 30.07 in1018.3 mb 0.00 in0.0 mm 0.00 in0.0 mm 0.00 in0.0 mm
09:05 AM 81.2°F27.3°C 76.3°F24.6°C 85% 4.0 mph ENE6.4 kmh ENE 9.0 mph14.5 kmh 30.07 in1018.3 mb 0.00 in0.0 mm 0.00 in0.0 mm 0.00 in0.0 mm
09:10 AM 81.9°F27.7°C 76.6°F24.8°C 84% 4.0 mph ENE6.4 kmh ENE 9.0 mph14.5 kmh 30.07 in1018.3 mb 0.00 in0.0 mm 0.00 in0.0 mm 0.00 in0.0 mm
09:15 AM 82.5°F28.1°C 77.2°F25.1°C 84% 4.0 mph ENE6.4 kmh ENE 9.0 mph14.5 kmh 30.07 in1018.3 mb 0.00 in0.0 mm 0.00 in0.0 mm 0.00 in0.0 mm
09:20 AM 83.1°F28.4°C 77.0°F25.0°C 82% 4.0 mph NE6.4 kmh NE 9.0 mph14.5 kmh 30.07 in1018.3 mb 0.00 in0.0 mm 0.00 in0.0 mm 0.00 in0.0 mm
09:25 AM 83.5°F28.6°C 77.4°F25.2°C 82% 5.0 mph NE8.0 kmh NE 9.0 mph14.5 kmh 30.07 in1018.3 mb 0.00 in0.0 mm 0.00 in0.0 mm 0.00 in0.0 mm
09:30 AM 83.9°F28.8°C 77.8°F25.4°C 82% 3.0 mph ENE4.8 kmh ENE 8.0 mph12.9 kmh 30.07 in1018.3 mb 0.00 in0.0 mm 0.00 in0.0 mm 0.00 in0.0 mm
09:35 AM 84.5°F29.2°C 78.0°F25.6°C 81% 3.0 mph E4.8 kmh E 8.0 mph12.9 kmh 30.07 in1018.3 mb 0.00 in0.0 mm 0.00 in0.0 mm 0.00 in0.0 mm
09:40 AM 84.9°F29.4°C 77.7°F25.4°C 79% 4.0 mph E6.4 kmh E 8.0 mph12.9 kmh 30.07 in1018.3 mb 0.00 in0.0 mm 0.00 in0.0 mm 0.00 in0.0 mm
09:45 AM 85.2°F29.6°C 77.6°F25.3°C 78% 5.0 mph E8.0 kmh E 10.0 mph16.1 kmh 30.07 in1018.3 mb 0.00 in0.0 mm 0.00 in0.0 mm 0.00 in0.0 mm
09:50 AM 85.5°F29.7°C 77.9°F25.5°C 78% 5.0 mph E8.0 kmh E 10.0 mph16.1 kmh 30.07 in1018.3 mb 0.00 in0.0 mm 0.00 in0.0 mm 0.00 in0.0 mm
09:55 AM 85.7°F29.8°C 77.7°F25.4°C 77% 5.0 mph E8.0 kmh E 10.0 mph16.1 kmh 30.07 in1018.3 mb 0.00 in0.0 mm 0.00 in0.0 mm 0.00 in0.0 mm
10:00 AM 85.7°F29.8°C 77.7°F25.4°C 77% 4.0 mph E6.4 kmh E 9.0 mph14.5 kmh 30.07 in1018.3 mb 0.00 in0.0 mm 0.00 in0.0 mm 0.00 in0.0 mm
10:05 AM 85.9°F29.9°C 78.2°F25.7°C 78% 3.0 mph E4.8 kmh E 8.0 mph12.9 kmh 30.07 in1018.3 mb 0.00 in0.0 mm 0.00 in0.0 mm 0.00 in0.0 mm
10:10 AM 86.5°F30.3°C 78.8°F26.0°C 78% 4.0 mph E6.4 kmh E 9.0 mph14.5 kmh 30.07 in1018.3 mb 0.00 in0.0 mm 0.00 in0.0 mm 0.00 in0.0 mm
10:15 AM 87.0°F30.6°C 78.9°F26.1°C 77% 4.0 mph ESE6.4 kmh ESE 11.0 mph17.7 kmh 30.07 in1018.3 mb 0.00 in0.0 mm 0.00 in0.0 mm 0.00 in0.0 mm
10:20 AM 87.4°F30.8°C 78.5°F25.8°C 75% 4.0 mph E6.4 kmh E 11.0 mph17.7 kmh 30.07 in1018.3 mb 0.00 in0.0 mm 0.00 in0.0 mm 0.00 in0.0 mm
10:25 AM 87.6°F30.9°C 77.9°F25.5°C 73% 5.0 mph ENE8.0 kmh ENE 10.0 mph16.1 kmh 30.06 in1017.9 mb 0.00 in0.0 mm 0.00 in0.0 mm 0.00 in0.0 mm
10:30 AM 87.9°F31.1°C 78.2°F25.7°C 73% 5.0 mph ENE8.0 kmh ENE 10.0 mph16.1 kmh 30.06 in1017.9 mb 0.00 in0.0 mm 0.00 in0.0 mm 0.00 in0.0 mm
10:35 AM 88.3°F31.3°C 78.5°F25.8°C 73% 5.0 mph E8.0 kmh E 12.0 mph19.3 kmh 30.06 in1017.9 mb 0.00 in0.0 mm 0.00 in0.0 mm 0.00 in0.0 mm
10:40 AM 88.5°F31.4°C 78.7°F25.9°C 73% 4.0 mph E6.4 kmh E 12.0 mph19.3 kmh 30.06 in1017.9 mb 0.00 in0.0 mm 0.00 in0.0 mm 0.00 in0.0 mm
10:45 AM 88.7°F31.5°C 78.5°F25.8°C 72% 4.0 mph ESE6.4 kmh ESE 11.0 mph17.7 kmh 30.06 in1017.9 mb 0.00 in0.0 mm 0.00 in0.0 mm 0.00 in0.0 mm
10:50 AM 88.9°F31.6°C 77.8°F25.4°C 70% 3.0 mph E4.8 kmh E 8.0 mph12.9 kmh 30.06 in1017.9 mb 0.00 in0.0 mm 0.00 in0.0 mm 0.00 in0.0 mm
10:55 AM 89.2°F31.8°C 78.6°F25.9°C 71% 3.0 mph ENE4.8 kmh ENE 8.0 mph12.9 kmh 30.06 in1017.9 mb 0.00 in0.0 mm 0.00 in0.0 mm 0.00 in0.0 mm
11:00 AM 89.5°F31.9°C 78.4°F25.8°C 70% 4.0 mph E6.4 kmh E 9.0 mph14.5 kmh 30.06 in1017.9 mb 0.00 in0.0 mm 0.00 in0.0 mm 0.00 in0.0 mm
11:05 AM 89.7°F32.1°C 77.7°F25.4°C 68% 4.0 mph E6.4 kmh E 9.0 mph14.5 kmh 30.05 in1017.6 mb 0.00 in0.0 mm 0.00 in0.0 mm 0.00 in0.0 mm
11:10 AM 89.7°F32.1°C 78.6°F25.9°C 70% 3.0 mph ENE4.8 kmh ENE 8.0 mph12.9 kmh 30.05 in1017.6 mb 0.00 in0.0 mm 0.00 in0.0 mm 0.00 in0.0 mm
11:15 AM 90.2°F32.3°C 79.5°F26.4°C 71% 4.0 mph E6.4 kmh E 8.0 mph12.9 kmh 30.05 in1017.6 mb 0.00 in0.0 mm 0.00 in0.0 mm 0.00 in0.0 mm
11:20 AM 90.8°F32.7°C 79.2°F26.2°C 69% 3.0 mph E4.8 kmh E 8.0 mph12.9 kmh 30.05 in1017.6 mb 0.00 in0.0 mm 0.00 in0.0 mm 0.00 in0.0 mm
11:25 AM 91.2°F32.9°C 79.6°F26.4°C 69% 3.0 mph E4.8 kmh E 10.0 mph16.1 kmh 30.05 in1017.6 mb 0.00 in0.0 mm 0.00 in0.0 mm 0.00 in0.0 mm
11:30 AM 91.4°F33.0°C 79.3°F26.3°C 68% 4.0 mph ESE6.4 kmh ESE 10.0 mph16.1 kmh 30.05 in1017.6 mb 0.00 in0.0 mm 0.00 in0.0 mm 0.00 in0.0 mm
11:35 AM 91.7°F33.2°C 79.6°F26.4°C 68% 4.0 mph SE6.4 kmh SE 8.0 mph12.9 kmh 30.05 in1017.6 mb 0.00 in0.0 mm 0.00 in0.0 mm 0.00 in0.0 mm
11:40 AM 92.2°F33.4°C 80.1°F26.7°C 68% 3.0 mph E4.8 kmh E 8.0 mph12.9 kmh 30.04 in1017.3 mb 0.00 in0.0 mm 0.00 in0.0 mm 0.00 in0.0 mm
11:45 AM 92.6°F33.7°C 80.5°F26.9°C 68% 3.0 mph E4.8 kmh E 8.0 mph12.9 kmh 30.04 in1017.3 mb 0.00 in0.0 mm 0.00 in0.0 mm 0.00 in0.0 mm
11:50 AM 92.6°F33.7°C 79.6°F26.4°C 66% 4.0 mph E6.4 kmh E 8.0 mph12.9 kmh 30.04 in1017.3 mb 0.00 in0.0 mm 0.00 in0.0 mm 0.00 in0.0 mm
11:55 AM 92.5°F33.6°C 79.0°F26.1°C 65% 4.0 mph E6.4 kmh E 8.0 mph12.9 kmh 30.04 in1017.3 mb 0.00 in0.0 mm 0.00 in0.0 mm 0.00 in0.0 mm
12:00 PM 92.3°F33.5°C 78.8°F26.0°C 65% 3.0 mph ENE4.8 kmh ENE 8.0 mph12.9 kmh 30.04 in1017.3 mb 0.00 in0.0 mm 0.00 in0.0 mm 0.00 in0.0 mm
12:05 PM 92.3°F33.5°C 79.3°F26.3°C 66% 3.0 mph E4.8 kmh E 8.0 mph12.9 kmh 30.03 in1016.9 mb 0.00 in0.0 mm 0.00 in0.0 mm 0.00 in0.0 mm
12:10 PM 92.3°F33.5°C 78.4°F25.8°C 64% 4.0 mph NE6.4 kmh NE 8.0 mph12.9 kmh 30.03 in1016.9 mb 0.00 in0.0 mm 0.00 in0.0 mm 0.00 in0.0 mm
12:15 PM 92.3°F33.5°C 78.8°F26.0°C 65% 4.0 mph NE6.4 kmh NE 8.0 mph12.9 kmh 30.03 in1016.9 mb 0.00 in0.0 mm 0.00 in0.0 mm 0.00 in0.0 mm
12:20 PM 92.0°F33.3°C 78.1°F25.6°C 64% 4.0 mph ENE6.4 kmh ENE 10.0 mph16.1 kmh 30.02 in1016.6 mb 0.00 in0.0 mm 0.00 in0.0 mm 0.00 in0.0 mm
12:25 PM 91.9°F33.3°C 78.0°F25.6°C 64% 4.0 mph NE6.4 kmh NE 10.0 mph16.1 kmh 30.02 in1016.6 mb 0.00 in0.0 mm 0.00 in0.0 mm 0.00 in0.0 mm
12:30 PM 91.9°F33.3°C 78.0°F25.6°C 64% 4.0 mph NE6.4 kmh NE 8.0 mph12.9 kmh 30.02 in1016.6 mb 0.00 in0.0 mm 0.00 in0.0 mm 0.00 in0.0 mm
12:35 PM 92.2°F33.4°C 78.3°F25.7°C 64% 4.0 mph ENE6.4 kmh ENE 8.0 mph12.9 kmh 30.02 in1016.6 mb 0.00 in0.0 mm 0.00 in0.0 mm 0.00 in0.0 mm
12:40 PM 92.9°F33.8°C 78.9°F26.1°C 64% 4.0 mph E6.4 kmh E 8.0 mph12.9 kmh 30.02 in1016.6 mb 0.00 in0.0 mm 0.00 in0.0 mm 0.00 in0.0 mm
12:45 PM 93.7°F34.3°C 79.2°F26.2°C 63% 3.0 mph E4.8 kmh E 10.0 mph16.1 kmh 30.01 in1016.3 mb 0.00 in0.0 mm 0.00 in0.0 mm 0.00 in0.0 mm
12:50 PM 93.8°F34.3°C 79.3°F26.3°C 63% 4.0 mph NE6.4 kmh NE 10.0 mph16.1 kmh 30.01 in1016.3 mb 0.00 in0.0 mm 0.00 in0.0 mm 0.00 in0.0 mm
12:55 PM 93.2°F34.0°C 78.7°F25.9°C 63% 4.0 mph NE6.4 kmh NE 9.0 mph14.5 kmh 30.01 in1016.3 mb 0.00 in0.0 mm 0.00 in0.0 mm 0.00 in0.0 mm
01:00 PM 92.5°F33.6°C 78.1°F25.6°C 63% 4.0 mph ENE6.4 kmh ENE 9.0 mph14.5 kmh 30.00 in1015.9 mb 0.00 in0.0 mm 0.00 in0.0 mm 0.00 in0.0 mm
01:05 PM 92.0°F33.3°C 79.0°F26.1°C 66% 4.0 mph ENE6.4 kmh ENE 8.0 mph12.9 kmh 30.00 in1015.9 mb 0.00 in0.0 mm 0.00 in0.0 mm 0.00 in0.0 mm
01:10 PM 92.1°F33.4°C 79.6°F26.4°C 67% 4.0 mph E6.4 kmh E 10.0 mph16.1 kmh 30.00 in1015.9 mb 0.00 in0.0 mm 0.00 in0.0 mm 0.00 in0.0 mm
01:15 PM 92.6°F33.7°C 78.6°F25.9°C 64% 4.0 mph E6.4 kmh E 10.0 mph16.1 kmh 30.00 in1015.9 mb 0.00 in0.0 mm 0.00 in0.0 mm 0.00 in0.0 mm
01:20 PM 92.9°F33.8°C 79.4°F26.3°C 65% 4.0 mph E6.4 kmh E 10.0 mph16.1 kmh 29.99 in1015.6 mb 0.00 in0.0 mm 0.00 in0.0 mm 0.00 in0.0 mm
01:25 PM 93.0°F33.9°C 78.5°F25.8°C 63% 5.0 mph E8.0 kmh E 11.0 mph17.7 kmh 29.99 in1015.6 mb 0.00 in0.0 mm 0.00 in0.0 mm 0.00 in0.0 mm
01:30 PM 92.6°F33.7°C 78.6°F25.9°C 64% 5.0 mph NE8.0 kmh NE 11.0 mph17.7 kmh 29.99 in1015.6 mb 0.00 in0.0 mm 0.00 in0.0 mm 0.00 in0.0 mm
01:35 PM 92.6°F33.7°C 79.1°F26.2°C 65% 5.0 mph NE8.0 kmh NE 10.0 mph16.1 kmh 29.99 in1015.6 mb 0.00 in0.0 mm 0.00 in0.0 mm 0.00 in0.0 mm
01:40 PM 93.3°F34.1°C 78.8°F26.0°C 63% 4.0 mph ENE6.4 kmh ENE 10.0 mph16.1 kmh 29.99 in1015.6 mb 0.00 in0.0 mm 0.00 in0.0 mm 0.00 in0.0 mm
01:45 PM 93.5°F34.2°C 78.5°F25.8°C 62% 4.0 mph NE6.4 kmh NE 8.0 mph12.9 kmh 29.98 in1015.2 mb 0.00 in0.0 mm 0.00 in0.0 mm 0.00 in0.0 mm
01:50 PM 93.0°F33.9°C 78.5°F25.8°C 63% 4.0 mph NNE6.4 kmh NNE 8.0 mph12.9 kmh 29.98 in1015.2 mb 0.00 in0.0 mm 0.00 in0.0 mm 0.00 in0.0 mm
01:55 PM 92.0°F33.3°C 77.6°F25.3°C 63% 4.0 mph NNE6.4 kmh NNE 8.0 mph12.9 kmh 29.98 in1015.2 mb 0.00 in0.0 mm 0.00 in0.0 mm 0.00 in0.0 mm
02:00 PM 91.1°F32.8°C 77.2°F25.1°C 64% 4.0 mph NE6.4 kmh NE 9.0 mph14.5 kmh 29.98 in1015.2 mb 0.00 in0.0 mm 0.00 in0.0 mm 0.00 in0.0 mm
02:05 PM 89.8°F32.1°C 79.1°F26.2°C 71% 6.0 mph NE9.7 kmh NE 10.0 mph16.1 kmh 29.99 in1015.6 mb 0.08 in2.0 mm 0.96 in24.4 mm 0.08 in2.0 mm
02:10 PM 86.7°F30.4°C 77.8°F25.4°C 75% 5.0 mph NNE8.0 kmh NNE 10.0 mph16.1 kmh 29.98 in1015.2 mb 0.19 in4.8 mm 1.32 in33.5 mm 0.19 in4.8 mm
02:15 PM 84.2°F29.0°C 76.6°F24.8°C 78% 3.0 mph N4.8 kmh N 7.0 mph11.3 kmh 29.98 in1015.2 mb 0.22 in5.6 mm 0.36 in9.1 mm 0.22 in5.6 mm
02:20 PM 83.1°F28.4°C 76.7°F24.8°C 81% 2.0 mph NNW3.2 kmh NNW 4.0 mph6.4 kmh 29.97 in1014.9 mb 0.22 in5.6 mm 0.00 in0.0 mm 0.22 in5.6 mm
02:25 PM 82.6°F28.1°C 76.9°F24.9°C 83% 1.0 mph N1.6 kmh N 3.0 mph4.8 kmh 29.97 in1014.9 mb 0.22 in5.6 mm 0.00 in0.0 mm 0.22 in5.6 mm
02:30 PM 83.1°F28.4°C 77.8°F25.4°C 84% 1.0 mph N1.6 kmh N 3.0 mph4.8 kmh 29.97 in1014.9 mb 0.22 in5.6 mm 0.00 in0.0 mm 0.22 in5.6 mm
02:35 PM 83.5°F28.6°C 78.2°F25.7°C 84% 2.0 mph ENE3.2 kmh ENE 12.0 mph19.3 kmh 29.98 in1015.2 mb 0.22 in5.6 mm 0.00 in0.0 mm 0.22 in5.6 mm
02:40 PM 83.3°F28.5°C 77.2°F25.1°C 82% 4.0 mph ENE6.4 kmh ENE 12.0 mph19.3 kmh 29.98 in1015.2 mb 0.22 in5.6 mm 0.00 in0.0 mm 0.22 in5.6 mm
02:45 PM 82.7°F28.2°C 77.0°F25.0°C 83% 4.0 mph ENE6.4 kmh ENE 10.0 mph16.1 kmh 29.97 in1014.9 mb 0.28 in7.1 mm 0.72 in18.3 mm 0.28 in7.1 mm
02:50 PM 82.4°F28.0°C 77.1°F25.1°C 84% 2.0 mph E3.2 kmh E 9.0 mph14.5 kmh 29.97 in1014.9 mb 0.29 in7.4 mm 0.12 in3.0 mm 0.29 in7.4 mm
02:55 PM 82.1°F27.8°C 76.8°F24.9°C 84% 1.0 mph E1.6 kmh E 3.0 mph4.8 kmh 29.97 in1014.9 mb 0.29 in7.4 mm 0.00 in0.0 mm 0.29 in7.4 mm
03:00 PM 82.6°F28.1°C 77.6°F25.3°C 85% 2.0 mph E3.2 kmh E 4.0 mph6.4 kmh 29.96 in1014.6 mb 0.29 in7.4 mm 0.00 in0.0 mm 0.29 in7.4 mm
03:05 PM 83.3°F28.5°C 78.3°F25.7°C 85% 2.0 mph ENE3.2 kmh ENE 4.0 mph6.4 kmh 29.96 in1014.6 mb 0.18 in4.6 mm 0.00 in0.0 mm 0.29 in7.4 mm
03:10 PM 84.1°F28.9°C 79.1°F26.2°C 85% 2.0 mph ENE3.2 kmh ENE 7.0 mph11.3 kmh 29.96 in1014.6 mb 0.09 in2.3 mm 0.00 in0.0 mm 0.29 in7.4 mm
03:15 PM 84.8°F29.3°C 79.4°F26.3°C 84% 2.0 mph E3.2 kmh E 7.0 mph11.3 kmh 29.96 in1014.6 mb 0.07 in1.8 mm 0.00 in0.0 mm 0.29 in7.4 mm
03:20 PM 85.6°F29.8°C 79.8°F26.6°C 83% 2.0 mph E3.2 kmh E 6.0 mph9.7 kmh 29.96 in1014.6 mb 0.07 in1.8 mm 0.00 in0.0 mm 0.29 in7.4 mm
03:25 PM 86.1°F30.1°C 80.0°F26.7°C 82% 3.0 mph E4.8 kmh E 6.0 mph9.7 kmh 29.96 in1014.6 mb 0.07 in1.8 mm 0.00 in0.0 mm 0.29 in7.4 mm
03:30 PM 86.8°F30.4°C 79.9°F26.6°C 80% 2.0 mph E3.2 kmh E 6.0 mph9.7 kmh 29.96 in1014.6 mb 0.07 in1.8 mm 0.00 in0.0 mm 0.29 in7.4 mm
03:35 PM 87.2°F30.7°C 79.9°F26.6°C 79% 3.0 mph ESE4.8 kmh ESE 6.0 mph9.7 kmh 29.96 in1014.6 mb 0.07 in1.8 mm 0.00 in0.0 mm 0.29 in7.4 mm
03:40 PM 87.7°F30.9°C 80.0°F26.7°C 78% 3.0 mph ESE4.8 kmh ESE 7.0 mph11.3 kmh 29.96 in1014.6 mb 0.07 in1.8 mm 0.00 in0.0 mm 0.29 in7.4 mm
03:45 PM 88.0°F31.1°C 79.1°F26.2°C 75% 3.0 mph ESE4.8 kmh ESE 7.0 mph11.3 kmh 29.96 in1014.6 mb 0.01 in0.3 mm 0.00 in0.0 mm 0.29 in7.4 mm
03:50 PM 88.2°F31.2°C 79.7°F26.5°C 76% 3.0 mph ESE4.8 kmh ESE 7.0 mph11.3 kmh 29.96 in1014.6 mb 0.00 in0.0 mm 0.00 in0.0 mm 0.29 in7.4 mm
03:55 PM 88.7°F31.5°C 79.3°F26.3°C 74% 3.0 mph E4.8 kmh E 12.0 mph19.3 kmh 29.96 in1014.6 mb 0.00 in0.0 mm 0.00 in0.0 mm 0.29 in7.4 mm
04:00 PM 88.1°F31.2°C 77.5°F25.3°C 71% 4.0 mph E6.4 kmh E 12.0 mph19.3 kmh 29.96 in1014.6 mb 0.00 in0.0 mm 0.00 in0.0 mm 0.29 in7.4 mm
04:05 PM 86.4°F30.2°C 75.9°F24.4°C 71% 5.0 mph ESE8.0 kmh ESE 12.0 mph19.3 kmh 29.95 in1014.2 mb 0.00 in0.0 mm 0.00 in0.0 mm 0.29 in7.4 mm
04:10 PM 85.1°F29.5°C 75.1°F23.9°C 72% 4.0 mph ESE6.4 kmh ESE 12.0 mph19.3 kmh 29.95 in1014.2 mb 0.00 in0.0 mm 0.00 in0.0 mm 0.29 in7.4 mm
04:15 PM 84.3°F29.1°C 75.1°F23.9°C 74% 3.0 mph ESE4.8 kmh ESE 10.0 mph16.1 kmh 29.95 in1014.2 mb 0.00 in0.0 mm 0.00 in0.0 mm 0.29 in7.4 mm
04:20 PM 83.7°F28.7°C 74.9°F23.8°C 75% 3.0 mph ESE4.8 kmh ESE 8.0 mph12.9 kmh 29.95 in1014.2 mb 0.00 in0.0 mm 0.00 in0.0 mm 0.29 in7.4 mm
04:25 PM 83.2°F28.4°C 74.4°F23.6°C 75% 3.0 mph E4.8 kmh E 8.0 mph12.9 kmh 29.95 in1014.2 mb 0.00 in0.0 mm 0.00 in0.0 mm 0.29 in7.4 mm
04:30 PM 82.9°F28.3°C 74.2°F23.4°C 75% 4.0 mph E6.4 kmh E 8.0 mph12.9 kmh 29.95 in1014.2 mb 0.00 in0.0 mm 0.00 in0.0 mm 0.29 in7.4 mm
04:35 PM 83.1°F28.4°C 74.4°F23.6°C 75% 3.0 mph E4.8 kmh E 8.0 mph12.9 kmh 29.95 in1014.2 mb 0.00 in0.0 mm 0.00 in0.0 mm 0.29 in7.4 mm
04:40 PM 83.2°F28.4°C 74.4°F23.6°C 75% 2.0 mph E3.2 kmh E 8.0 mph12.9 kmh 29.95 in1014.2 mb 0.00 in0.0 mm 0.00 in0.0 mm 0.29 in7.4 mm
04:45 PM 83.3°F28.5°C 74.5°F23.6°C 75% 2.0 mph E3.2 kmh E 6.0 mph9.7 kmh 29.95 in1014.2 mb 0.00 in0.0 mm 0.00 in0.0 mm 0.29 in7.4 mm
04:50 PM 83.6°F28.7°C 74.4°F23.6°C 74% 1.0 mph E1.6 kmh E 3.0 mph4.8 kmh 29.95 in1014.2 mb 0.00 in0.0 mm 0.00 in0.0 mm 0.29 in7.4 mm
04:55 PM 83.9°F28.8°C 74.7°F23.7°C 74% 1.0 mph ENE1.6 kmh ENE 5.0 mph8.0 kmh 29.95 in1014.2 mb 0.00 in0.0 mm 0.00 in0.0 mm 0.29 in7.4 mm
05:00 PM 83.9°F28.8°C 74.3°F23.5°C 73% 2.0 mph E3.2 kmh E 5.0 mph8.0 kmh 29.95 in1014.2 mb 0.00 in0.0 mm 0.00 in0.0 mm 0.29 in7.4 mm
05:05 PM 83.9°F28.8°C 74.7°F23.7°C 74% 1.0 mph E1.6 kmh E 3.0 mph4.8 kmh 29.95 in1014.2 mb 0.00 in0.0 mm 0.00 in0.0 mm 0.29 in7.4 mm
05:10 PM 83.6°F28.7°C 74.8°F23.8°C 75% 1.0 mph E1.6 kmh E 2.0 mph3.2 kmh 29.95 in1014.2 mb 0.00 in0.0 mm 0.00 in0.0 mm 0.29 in7.4 mm
05:15 PM 83.4°F28.6°C 75.0°F23.9°C 76% Calm Calm 2.0 mph3.2 kmh 29.95 in1014.2 mb 0.00 in0.0 mm 0.00 in0.0 mm 0.29 in7.4 mm
05:20 PM 83.0°F28.3°C 74.6°F23.7°C 76% 1.0 mph E1.6 kmh E 3.0 mph4.8 kmh 29.96 in1014.6 mb 0.00 in0.0 mm 0.00 in0.0 mm 0.29 in7.4 mm
05:25 PM 82.5°F28.1°C 74.6°F23.7°C 77% 2.0 mph SE3.2 kmh SE 5.0 mph8.0 kmh 29.96 in1014.6 mb 0.00 in0.0 mm 0.00 in0.0 mm 0.29 in7.4 mm
05:30 PM 82.1°F27.8°C 74.9°F23.8°C 79% 3.0 mph SE4.8 kmh SE 5.0 mph8.0 kmh 29.96 in1014.6 mb 0.00 in0.0 mm 0.00 in0.0 mm 0.29 in7.4 mm
05:35 PM 81.7°F27.6°C 74.9°F23.8°C 80% 3.0 mph SE4.8 kmh SE 6.0 mph9.7 kmh 29.97 in1014.9 mb 0.00 in0.0 mm 0.00 in0.0 mm 0.29 in7.4 mm
05:40 PM 81.3°F27.4°C 74.9°F23.8°C 81% 3.0 mph SSE4.8 kmh SSE 6.0 mph9.7 kmh 29.97 in1014.9 mb 0.00 in0.0 mm 0.00 in0.0 mm 0.29 in7.4 mm
05:45 PM 81.0°F27.2°C 75.0°F23.9°C 82% 2.0 mph SSE3.2 kmh SSE 5.0 mph8.0 kmh 29.97 in1014.9 mb 0.00 in0.0 mm 0.00 in0.0 mm 0.29 in7.4 mm
05:50 PM 80.6°F27.0°C 74.6°F23.7°C 82% 3.0 mph SE4.8 kmh SE 5.0 mph8.0 kmh 29.97 in1014.9 mb 0.00 in0.0 mm 0.00 in0.0 mm 0.29 in7.4 mm
05:55 PM 80.5°F26.9°C 74.9°F23.8°C 83% 3.0 mph SE4.8 kmh SE 5.0 mph8.0 kmh 29.97 in1014.9 mb 0.00 in0.0 mm 0.00 in0.0 mm 0.29 in7.4 mm
06:00 PM 80.3°F26.8°C 74.7°F23.7°C 83% 2.0 mph SE3.2 kmh SE 4.0 mph6.4 kmh 29.97 in1014.9 mb 0.00 in0.0 mm 0.00 in0.0 mm 0.29 in7.4 mm
06:05 PM 80.1°F26.7°C 74.5°F23.6°C 83% 2.0 mph SE3.2 kmh SE 4.0 mph6.4 kmh 29.97 in1014.9 mb 0.00 in0.0 mm 0.00 in0.0 mm 0.29 in7.4 mm
06:10 PM 80.0°F26.7°C 74.4°F23.6°C 83% 2.0 mph SE3.2 kmh SE 3.0 mph4.8 kmh 29.97 in1014.9 mb 0.00 in0.0 mm 0.00 in0.0 mm 0.29 in7.4 mm
06:15 PM 79.8°F26.6°C 74.2°F23.4°C 83% 2.0 mph SE3.2 kmh SE 3.0 mph4.8 kmh 29.97 in1014.9 mb 0.00 in0.0 mm 0.00 in0.0 mm 0.29 in7.4 mm
06:20 PM 79.8°F26.6°C 74.2°F23.4°C 83% 1.0 mph SE1.6 kmh SE 2.0 mph3.2 kmh 29.97 in1014.9 mb 0.00 in0.0 mm 0.00 in0.0 mm 0.29 in7.4 mm
06:25 PM 79.6°F26.4°C 74.3°F23.5°C 84% 1.0 mph SE1.6 kmh SE 2.0 mph3.2 kmh 29.97 in1014.9 mb 0.00 in0.0 mm 0.00 in0.0 mm 0.29 in7.4 mm
06:30 PM 79.5°F26.4°C 74.2°F23.4°C 84% 1.0 mph SE1.6 kmh SE 3.0 mph4.8 kmh 29.97 in1014.9 mb 0.00 in0.0 mm 0.00 in0.0 mm 0.29 in7.4 mm
06:35 PM 79.4°F26.3°C 74.1°F23.4°C 84% 1.0 mph E1.6 kmh E 3.0 mph4.8 kmh 29.97 in1014.9 mb 0.00 in0.0 mm 0.00 in0.0 mm 0.29 in7.4 mm
06:40 PM 79.2°F26.2°C 73.9°F23.3°C 84% 2.0 mph E3.2 kmh E 4.0 mph6.4 kmh 29.97 in1014.9 mb 0.00 in0.0 mm 0.00 in0.0 mm 0.29 in7.4 mm
06:45 PM 79.1°F26.2°C 73.8°F23.2°C 84% 1.0 mph ESE1.6 kmh ESE 4.0 mph6.4 kmh 29.98 in1015.2 mb 0.00 in0.0 mm 0.00 in0.0 mm 0.29 in7.4 mm
06:50 PM 78.9°F26.1°C 73.7°F23.2°C 84% Calm Calm 2.0 mph3.2 kmh 29.98 in1015.2 mb 0.00 in0.0 mm 0.00 in0.0 mm 0.29 in7.4 mm
06:55 PM 78.7°F25.9°C 73.8°F23.2°C 85% Calm Calm 2.0 mph3.2 kmh 29.98 in1015.2 mb 0.00 in0.0 mm 0.00 in0.0 mm 0.29 in7.4 mm
07:00 PM 78.6°F25.9°C 73.7°F23.2°C 85% 1.0 mph ESE1.6 kmh ESE 2.0 mph3.2 kmh 29.98 in1015.2 mb 0.00 in0.0 mm 0.00 in0.0 mm 0.29 in7.4 mm
07:05 PM 78.4°F25.8°C 73.5°F23.1°C 85% 1.0 mph ESE1.6 kmh ESE 2.0 mph3.2 kmh 29.98 in1015.2 mb 0.00 in0.0 mm 0.00 in0.0 mm 0.29 in7.4 mm
07:10 PM 78.3°F25.7°C 73.4°F23.0°C 85% 1.0 mph ESE1.6 kmh ESE 2.0 mph3.2 kmh 29.98 in1015.2 mb 0.00 in0.0 mm 0.00 in0.0 mm 0.29 in7.4 mm
07:15 PM 78.1°F25.6°C 73.2°F22.9°C 85% 1.0 mph ESE1.6 kmh ESE 2.0 mph3.2 kmh 29.98 in1015.2 mb 0.00 in0.0 mm 0.00 in0.0 mm 0.29 in7.4 mm
07:20 PM 78.0°F25.6°C 73.1°F22.8°C 85% 1.0 mph ESE1.6 kmh ESE 2.0 mph3.2 kmh 29.98 in1015.2 mb 0.00 in0.0 mm 0.00 in0.0 mm 0.29 in7.4 mm
07:25 PM 78.0°F25.6°C 73.1°F22.8°C 85% 1.0 mph ESE1.6 kmh ESE 2.0 mph3.2 kmh 29.98 in1015.2 mb 0.00 in0.0 mm 0.00 in0.0 mm 0.29 in7.4 mm
07:30 PM 77.8°F25.4°C 72.9°F22.7°C 85% 1.0 mph ESE1.6 kmh ESE 2.0 mph3.2 kmh 29.99 in1015.6 mb 0.00 in0.0 mm 0.00 in0.0 mm 0.29 in7.4 mm
07:35 PM 77.7°F25.4°C 72.8°F22.7°C 85% Calm Calm 2.0 mph3.2 kmh 29.98 in1015.2 mb 0.00 in0.0 mm 0.00 in0.0 mm 0.29 in7.4 mm
07:40 PM 77.6°F25.3°C 73.1°F22.8°C 86% 1.0 mph E1.6 kmh E 3.0 mph4.8 kmh 29.98 in1015.2 mb 0.00 in0.0 mm 0.00 in0.0 mm 0.29 in7.4 mm
07:45 PM 77.5°F25.3°C 73.0°F22.8°C 86% 1.0 mph ENE1.6 kmh ENE 3.0 mph4.8 kmh 29.98 in1015.2 mb 0.00 in0.0 mm 0.00 in0.0 mm 0.29 in7.4 mm
07:50 PM 77.4°F25.2°C 72.9°F22.7°C 86% 1.0 mph ENE1.6 kmh ENE 5.0 mph8.0 kmh 29.98 in1015.2 mb 0.00 in0.0 mm 0.00 in0.0 mm 0.29 in7.4 mm
07:55 PM 77.4°F25.2°C 72.9°F22.7°C 86% 2.0 mph ENE3.2 kmh ENE 7.0 mph11.3 kmh 29.99 in1015.6 mb 0.00 in0.0 mm 0.00 in0.0 mm 0.29 in7.4 mm
08:00 PM 77.6°F25.3°C 72.7°F22.6°C 85% 2.0 mph ENE3.2 kmh ENE 7.0 mph11.3 kmh 29.99 in1015.6 mb 0.00 in0.0 mm 0.00 in0.0 mm 0.29 in7.4 mm
08:05 PM 77.6°F25.3°C 72.7°F22.6°C 85% 2.0 mph E3.2 kmh E 7.0 mph11.3 kmh 29.99 in1015.6 mb 0.00 in0.0 mm 0.00 in0.0 mm 0.29 in7.4 mm
08:10 PM 77.8°F25.4°C 72.9°F22.7°C 85% 2.0 mph E3.2 kmh E 6.0 mph9.7 kmh 30.00 in1015.9 mb 0.00 in0.0 mm 0.00 in0.0 mm 0.29 in7.4 mm
08:15 PM 77.8°F25.4°C 72.9°F22.7°C 85% 1.0 mph E1.6 kmh E 5.0 mph8.0 kmh 30.00 in1015.9 mb 0.00 in0.0 mm 0.00 in0.0 mm 0.29 in7.4 mm
08:20 PM 77.7°F25.4°C 72.8°F22.7°C 85% 2.0 mph E3.2 kmh E 3.0 mph4.8 kmh 30.00 in1015.9 mb 0.00 in0.0 mm 0.00 in0.0 mm 0.29 in7.4 mm
08:25 PM 77.7°F25.4°C 72.8°F22.7°C 85% 1.0 mph E1.6 kmh E 3.0 mph4.8 kmh 30.00 in1015.9 mb 0.00 in0.0 mm 0.00 in0.0 mm 0.29 in7.4 mm
08:30 PM 77.6°F25.3°C 72.7°F22.6°C 85% 1.0 mph ENE1.6 kmh ENE 3.0 mph4.8 kmh 30.00 in1015.9 mb 0.00 in0.0 mm 0.00 in0.0 mm 0.29 in7.4 mm
08:35 PM 77.5°F25.3°C 72.6°F22.6°C 85% 1.0 mph NE1.6 kmh NE 3.0 mph4.8 kmh 30.00 in1015.9 mb 0.00 in0.0 mm 0.00 in0.0 mm 0.29 in7.4 mm
08:40 PM 77.4°F25.2°C 72.5°F22.5°C 85% 1.0 mph ENE1.6 kmh ENE 5.0 mph8.0 kmh 30.00 in1015.9 mb 0.00 in0.0 mm 0.00 in0.0 mm 0.29 in7.4 mm
08:45 PM 77.3°F25.2°C 72.4°F22.4°C 85% 1.0 mph ENE1.6 kmh ENE 5.0 mph8.0 kmh 30.00 in1015.9 mb 0.00 in0.0 mm 0.00 in0.0 mm 0.29 in7.4 mm
08:50 PM 77.3°F25.2°C 72.4°F22.4°C 85% 1.0 mph ENE1.6 kmh ENE 4.0 mph6.4 kmh 30.01 in1016.3 mb 0.00 in0.0 mm 0.00 in0.0 mm 0.29 in7.4 mm
08:55 PM 77.3°F25.2°C 72.4°F22.4°C 85% 1.0 mph ENE1.6 kmh ENE 5.0 mph8.0 kmh 30.01 in1016.3 mb 0.00 in0.0 mm 0.00 in0.0 mm 0.29 in7.4 mm
09:00 PM 77.2°F25.1°C 72.3°F22.4°C 85% 1.0 mph E1.6 kmh E 5.0 mph8.0 kmh 30.01 in1016.3 mb 0.00 in0.0 mm 0.00 in0.0 mm 0.29 in7.4 mm
09:05 PM 77.2°F25.1°C 72.3°F22.4°C 85% 1.0 mph E1.6 kmh E 2.0 mph3.2 kmh 30.01 in1016.3 mb 0.00 in0.0 mm 0.00 in0.0 mm 0.29 in7.4 mm
09:10 PM 77.1°F25.1°C 72.2°F22.3°C 85% 1.0 mph ENE1.6 kmh ENE 2.0 mph3.2 kmh 30.01 in1016.3 mb 0.00 in0.0 mm 0.00 in0.0 mm 0.29 in7.4 mm
09:15 PM 77.1°F25.1°C 72.2°F22.3°C 85% 1.0 mph ENE1.6 kmh ENE 2.0 mph3.2 kmh 30.01 in1016.3 mb 0.00 in0.0 mm 0.00 in0.0 mm 0.29 in7.4 mm
09:20 PM 76.9°F24.9°C 72.4°F22.4°C 86% Calm Calm 1.0 mph1.6 kmh 30.01 in1016.3 mb 0.00 in0.0 mm 0.00 in0.0 mm 0.29 in7.4 mm
09:25 PM 76.8°F24.9°C 72.3°F22.4°C 86% Calm Calm 2.0 mph3.2 kmh 30.01 in1016.3 mb 0.00 in0.0 mm 0.00 in0.0 mm 0.29 in7.4 mm
09:30 PM 76.8°F24.9°C 72.3°F22.4°C 86% 1.0 mph ENE1.6 kmh ENE 2.0 mph3.2 kmh 30.01 in1016.3 mb 0.00 in0.0 mm 0.00 in0.0 mm 0.29 in7.4 mm
09:35 PM 76.6°F24.8°C 72.1°F22.3°C 86% 1.0 mph ENE1.6 kmh ENE 2.0 mph3.2 kmh 30.02 in1016.6 mb 0.00 in0.0 mm 0.00 in0.0 mm 0.29 in7.4 mm
09:40 PM 76.5°F24.7°C 72.0°F22.2°C 86% Calm Calm 1.0 mph1.6 kmh 30.02 in1016.6 mb 0.00 in0.0 mm 0.00 in0.0 mm 0.29 in7.4 mm
09:45 PM 76.4°F24.7°C 71.9°F22.2°C 86% Calm Calm 1.0 mph1.6 kmh 30.02 in1016.6 mb 0.00 in0.0 mm 0.00 in0.0 mm 0.29 in7.4 mm
09:50 PM 76.3°F24.6°C 71.8°F22.1°C 86% 1.0 mph E1.6 kmh E 2.0 mph3.2 kmh 30.02 in1016.6 mb 0.00 in0.0 mm 0.00 in0.0 mm 0.29 in7.4 mm
09:55 PM 76.2°F24.6°C 71.7°F22.1°C 86% 1.0 mph E1.6 kmh E 2.0 mph3.2 kmh 30.02 in1016.6 mb 0.00 in0.0 mm 0.00 in0.0 mm 0.29 in7.4 mm
10:00 PM 76.0°F24.4°C 71.5°F21.9°C 86% Calm Calm 2.0 mph3.2 kmh 30.02 in1016.6 mb 0.00 in0.0 mm 0.00 in0.0 mm 0.29 in7.4 mm
10:05 PM 75.9°F24.4°C 71.4°F21.9°C 86% Calm Calm 1.0 mph1.6 kmh 30.02 in1016.6 mb 0.00 in0.0 mm 0.00 in0.0 mm 0.29 in7.4 mm
10:10 PM 75.8°F24.3°C 71.3°F21.8°C 86% Calm Calm 1.0 mph1.6 kmh 30.02 in1016.6 mb 0.00 in0.0 mm 0.00 in0.0 mm 0.29 in7.4 mm
10:15 PM 75.7°F24.3°C 71.2°F21.8°C 86% Calm Calm 1.0 mph1.6 kmh 30.02 in1016.6 mb 0.00 in0.0 mm 0.00 in0.0 mm 0.29 in7.4 mm
10:20 PM 75.5°F24.2°C 71.0°F21.7°C 86% Calm Calm 1.0 mph1.6 kmh 30.02 in1016.6 mb 0.00 in0.0 mm 0.00 in0.0 mm 0.29 in7.4 mm
10:25 PM 75.3°F24.1°C 70.8°F21.6°C 86% Calm Calm 1.0 mph1.6 kmh 30.02 in1016.6 mb 0.00 in0.0 mm 0.00 in0.0 mm 0.29 in7.4 mm
10:30 PM 75.3°F24.1°C 70.8°F21.6°C 86% Calm Calm 1.0 mph1.6 kmh 30.02 in1016.6 mb 0.00 in0.0 mm 0.00 in0.0 mm 0.29 in7.4 mm
10:35 PM 75.2°F24.0°C 70.7°F21.5°C 86% Calm Calm -- 30.02 in1016.6 mb 0.00 in0.0 mm 0.00 in0.0 mm 0.29 in7.4 mm
10:40 PM 75.0°F23.9°C 70.5°F21.4°C 86% Calm Calm -- 30.02 in1016.6 mb 0.00 in0.0 mm 0.00 in0.0 mm 0.29 in7.4 mm
10:45 PM 74.8°F23.8°C 70.3°F21.3°C 86% Calm Calm -- 30.01 in1016.3 mb 0.00 in0.0 mm 0.00 in0.0 mm 0.29 in7.4 mm
10:50 PM 74.7°F23.7°C 70.2°F21.2°C 86% Calm Calm 1.0 mph1.6 kmh 30.01 in1016.3 mb 0.00 in0.0 mm 0.00 in0.0 mm 0.29 in7.4 mm
10:55 PM 74.6°F23.7°C 70.1°F21.2°C 86% Calm Calm 2.0 mph3.2 kmh 30.01 in1016.3 mb 0.00 in0.0 mm 0.00 in0.0 mm 0.29 in7.4 mm
11:00 PM 74.5°F23.6°C 70.0°F21.1°C 86% Calm Calm 2.0 mph3.2 kmh 30.01 in1016.3 mb 0.00 in0.0 mm 0.00 in0.0 mm 0.29 in7.4 mm
11:05 PM 74.4°F23.6°C 69.9°F21.1°C 86% Calm Calm 1.0 mph1.6 kmh 30.01 in1016.3 mb 0.00 in0.0 mm 0.00 in0.0 mm 0.29 in7.4 mm
11:10 PM 74.3°F23.5°C 69.8°F21.0°C 86% Calm Calm 1.0 mph1.6 kmh 30.01 in1016.3 mb 0.00 in0.0 mm 0.00 in0.0 mm 0.29 in7.4 mm
11:15 PM 74.1°F23.4°C 69.6°F20.9°C 86% Calm Calm 1.0 mph1.6 kmh 30.01 in1016.3 mb 0.00 in0.0 mm 0.00 in0.0 mm 0.29 in7.4 mm
11:20 PM 74.1°F23.4°C 69.6°F20.9°C 86% Calm Calm 1.0 mph1.6 kmh 30.01 in1016.3 mb 0.00 in0.0 mm 0.00 in0.0 mm 0.29 in7.4 mm
11:25 PM 74.1°F23.4°C 69.3°F20.7°C 85% Calm Calm 1.0 mph1.6 kmh 30.00 in1015.9 mb 0.00 in0.0 mm 0.00 in0.0 mm 0.29 in7.4 mm
11:30 PM 74.1°F23.4°C 69.3°F20.7°C 85% Calm Calm 1.0 mph1.6 kmh 30.00 in1015.9 mb 0.00 in0.0 mm 0.00 in0.0 mm 0.29 in7.4 mm
11:35 PM 74.1°F23.4°C 69.3°F20.7°C 85% Calm Calm 1.0 mph1.6 kmh 30.00 in1015.9 mb 0.00 in0.0 mm 0.00 in0.0 mm 0.29 in7.4 mm
11:40 PM 74.0°F23.3°C 69.2°F20.7°C 85% Calm Calm 1.0 mph1.6 kmh 29.99 in1015.6 mb 0.00 in0.0 mm 0.00 in0.0 mm 0.29 in7.4 mm
11:45 PM 73.9°F23.3°C 69.1°F20.6°C 85% Calm Calm 1.0 mph1.6 kmh 29.99 in1015.6 mb 0.00 in0.0 mm 0.00 in0.0 mm 0.29 in7.4 mm
11:50 PM 73.9°F23.3°C 69.1°F20.6°C 85% Calm Calm 1.0 mph1.6 kmh 29.99 in1015.6 mb 0.00 in0.0 mm 0.00 in0.0 mm 0.29 in7.4 mm
11:55 PM 73.8°F23.2°C 69.0°F20.6°C 85% Calm Calm 1.0 mph1.6 kmh 29.99 in1015.6 mb 0.00 in0.0 mm 0.00 in0.0 mm 0.29 in7.4 mm